Terminal Aerodrome Forecast
Issued by NWS Omaha/Valley, NE

Home | Current Version | Previous Version | Text Only | Print | Product List | Glossary On
Versions: 1 2 3 4 5 6 7 8 9 10 11 12 13 14 15
000
FTUS43 KOAX 051120
TAFOFK
TAF
KOFK 051120Z 0512/0612 20012KT P6SM BKN110 WS020/22040KT
     FM051500 22012KT P6SM BKN110
     FM052000 26012KT P6SM BKN110
     FM052200 29012KT P6SM BKN110
     FM060300 32013KT P6SM SCT200
     FM061100 29015G23KT P6SM SCT200=

USA.gov is the U.S. government's official web portal to all federal, state and local government web resources and services.